sensor_id;sensor_type;location;lat;lon;timestamp;P1;durP1;ratioP1;P2;durP2;ratioP2
35891;SDS011;21993;42.672;23.296;2024-02-15T00:01:00;10.60;;;6.33;;
35891;SDS011;21993;42.672;23.296;2024-02-15T00:03:34;8.03;;;6.40;;
35891;SDS011;21993;42.672;23.296;2024-02-15T00:06:01;8.70;;;6.27;;
35891;SDS011;21993;42.672;23.296;2024-02-15T00:08:28;9.50;;;6.97;;
35891;SDS011;21993;42.672;23.296;2024-02-15T00:10:57;11.90;;;6.67;;
35891;SDS011;21993;42.672;23.296;2024-02-15T00:13:23;8.50;;;5.87;;
35891;SDS011;21993;42.672;23.296;2024-02-15T00:16:11;8.27;;;6.13;;
35891;SDS011;21993;42.672;23.296;2024-02-15T00:18:50;7.17;;;6.33;;
35891;SDS011;21993;42.672;23.296;2024-02-15T00:21:15;9.90;;;7.00;;
35891;SDS011;21993;42.672;23.296;2024-02-15T00:23:41;8.53;;;5.93;;
35891;SDS011;21993;42.672;23.296;2024-02-15T00:26:07;7.70;;;6.07;;
35891;SDS011;21993;42.672;23.296;2024-02-15T00:28:34;7.77;;;5.87;;
35891;SDS011;21993;42.672;23.296;2024-02-15T00:31:00;8.77;;;6.30;;
35891;SDS011;21993;42.672;23.296;2024-02-15T00:33:25;10.23;;;6.07;;
35891;SDS011;21993;42.672;23.296;2024-02-15T00:35:51;8.67;;;6.43;;
35891;SDS011;21993;42.672;23.296;2024-02-15T00:38:20;7.90;;;6.40;;
35891;SDS011;21993;42.672;23.296;2024-02-15T00:40:48;7.53;;;6.17;;
35891;SDS011;21993;42.672;23.296;2024-02-15T00:43:14;10.20;;;6.30;;
35891;SDS011;21993;42.672;23.296;2024-02-15T00:45:39;8.70;;;6.47;;
35891;SDS011;21993;42.672;23.296;2024-02-15T00:48:05;9.33;;;5.87;;
35891;SDS011;21993;42.672;23.296;2024-02-15T00:50:38;7.83;;;5.37;;
35891;SDS011;21993;42.672;23.296;2024-02-15T00:53:15;8.67;;;5.87;;
35891;SDS011;21993;42.672;23.296;2024-02-15T00:55:41;8.33;;;6.07;;
35891;SDS011;21993;42.672;23.296;2024-02-15T00:58:10;6.33;;;5.47;;
35891;SDS011;21993;42.672;23.296;2024-02-15T01:00:55;9.13;;;5.87;;
35891;SDS011;21993;42.672;23.296;2024-02-15T01:03:28;9.10;;;5.80;;
35891;SDS011;21993;42.672;23.296;2024-02-15T01:06:04;8.40;;;5.97;;
35891;SDS011;21993;42.672;23.296;2024-02-15T01:08:36;7.37;;;6.00;;
35891;SDS011;21993;42.672;23.296;2024-02-15T01:11:01;7.80;;;5.77;;
35891;SDS011;21993;42.672;23.296;2024-02-15T01:13:29;9.67;;;6.40;;
35891;SDS011;21993;42.672;23.296;2024-02-15T01:15:55;7.73;;;6.27;;
35891;SDS011;21993;42.672;23.296;2024-02-15T01:18:20;7.47;;;5.00;;
35891;SDS011;21993;42.672;23.296;2024-02-15T01:20:46;10.63;;;6.50;;
35891;SDS011;21993;42.672;23.296;2024-02-15T01:23:12;10.07;;;6.20;;
35891;SDS011;21993;42.672;23.296;2024-02-15T01:25:37;8.37;;;6.23;;
35891;SDS011;21993;42.672;23.296;2024-02-15T01:28:05;10.10;;;6.13;;
35891;SDS011;21993;42.672;23.296;2024-02-15T01:30:30;8.73;;;5.60;;
35891;SDS011;21993;42.672;23.296;2024-02-15T01:32:57;8.33;;;5.60;;
35891;SDS011;21993;42.672;23.296;2024-02-15T01:35:32;9.63;;;6.00;;
35891;SDS011;21993;42.672;23.296;2024-02-15T01:38:09;9.53;;;6.67;;
35891;SDS011;21993;42.672;23.296;2024-02-15T01:40:35;8.30;;;5.90;;
35891;SDS011;21993;42.672;23.296;2024-02-15T01:43:04;8.13;;;5.30;;
35891;SDS011;21993;42.672;23.296;2024-02-15T01:45:32;10.27;;;6.17;;
35891;SDS011;21993;42.672;23.296;2024-02-15T01:47:58;7.37;;;5.37;;
35891;SDS011;21993;42.672;23.296;2024-02-15T01:50:24;9.07;;;6.27;;
35891;SDS011;21993;42.672;23.296;2024-02-15T01:52:54;8.53;;;6.43;;
35891;SDS011;21993;42.672;23.296;2024-02-15T01:55:22;14.43;;;6.30;;
35891;SDS011;21993;42.672;23.296;2024-02-15T01:57:48;8.90;;;5.97;;
35891;SDS011;21993;42.672;23.296;2024-02-15T02:00:23;8.60;;;6.00;;
35891;SDS011;21993;42.672;23.296;2024-02-15T02:02:49;7.40;;;5.77;;
35891;SDS011;21993;42.672;23.296;2024-02-15T02:05:15;8.00;;;5.53;;
35891;SDS011;21993;42.672;23.296;2024-02-15T02:07:40;7.67;;;6.10;;
35891;SDS011;21993;42.672;23.296;2024-02-15T02:10:07;11.23;;;6.03;;
35891;SDS011;21993;42.672;23.296;2024-02-15T02:12:34;9.50;;;6.43;;
35891;SDS011;21993;42.672;23.296;2024-02-15T02:14:59;9.13;;;6.93;;
35891;SDS011;21993;42.672;23.296;2024-02-15T02:17:25;7.83;;;6.10;;
35891;SDS011;21993;42.672;23.296;2024-02-15T02:19:50;8.03;;;6.20;;
35891;SDS011;21993;42.672;23.296;2024-02-15T02:22:16;7.37;;;6.00;;
35891;SDS011;21993;42.672;23.296;2024-02-15T02:24:55;10.87;;;6.50;;
35891;SDS011;21993;42.672;23.296;2024-02-15T02:27:21;10.83;;;6.50;;
35891;SDS011;21993;42.672;23.296;2024-02-15T02:29:47;9.20;;;6.50;;
35891;SDS011;21993;42.672;23.296;2024-02-15T02:32:12;9.23;;;6.50;;
35891;SDS011;21993;42.672;23.296;2024-02-15T02:34:38;7.77;;;5.53;;
35891;SDS011;21993;42.672;23.296;2024-02-15T02:37:06;9.10;;;6.47;;
35891;SDS011;21993;42.672;23.296;2024-02-15T02:39:33;10.60;;;6.93;;
35891;SDS011;21993;42.672;23.296;2024-02-15T02:41:59;8.67;;;6.00;;
35891;SDS011;21993;42.672;23.296;2024-02-15T02:44:25;9.43;;;5.73;;
35891;SDS011;21993;42.672;23.296;2024-02-15T02:46:50;6.00;;;5.30;;
35891;SDS011;21993;42.672;23.296;2024-02-15T02:49:16;9.53;;;6.60;;
35891;SDS011;21993;42.672;23.296;2024-02-15T02:51:42;10.80;;;6.57;;
35891;SDS011;21993;42.672;23.296;2024-02-15T02:54:08;9.20;;;6.47;;
35891;SDS011;21993;42.672;23.296;2024-02-15T02:56:33;8.63;;;6.97;;
35891;SDS011;21993;42.672;23.296;2024-02-15T02:58:59;8.40;;;5.93;;
35891;SDS011;21993;42.672;23.296;2024-02-15T03:01:24;9.27;;;6.90;;
35891;SDS011;21993;42.672;23.296;2024-02-15T03:03:53;10.77;;;7.17;;
35891;SDS011;21993;42.672;23.296;2024-02-15T03:06:21;8.73;;;6.30;;
35891;SDS011;21993;42.672;23.296;2024-02-15T03:08:49;10.00;;;6.60;;
35891;SDS011;21993;42.672;23.296;2024-02-15T03:11:19;9.00;;;6.73;;
35891;SDS011;21993;42.672;23.296;2024-02-15T03:13:45;14.30;;;7.70;;
35891;SDS011;21993;42.672;23.296;2024-02-15T03:16:11;10.70;;;6.87;;
35891;SDS011;21993;42.672;23.296;2024-02-15T03:18:36;11.57;;;6.87;;
35891;SDS011;21993;42.672;23.296;2024-02-15T03:21:02;12.10;;;7.87;;
35891;SDS011;21993;42.672;23.296;2024-02-15T03:23:29;12.07;;;7.50;;
35891;SDS011;21993;42.672;23.296;2024-02-15T03:25:55;14.63;;;7.70;;
35891;SDS011;21993;42.672;23.296;2024-02-15T03:28:21;12.00;;;6.70;;
35891;SDS011;21993;42.672;23.296;2024-02-15T03:30:49;10.30;;;7.00;;
35891;SDS011;21993;42.672;23.296;2024-02-15T03:33:15;11.63;;;7.00;;
35891;SDS011;21993;42.672;23.296;2024-02-15T03:35:41;11.80;;;8.10;;
35891;SDS011;21993;42.672;23.296;2024-02-15T03:38:07;8.50;;;7.00;;
35891;SDS011;21993;42.672;23.296;2024-02-15T03:40:32;8.57;;;6.67;;
35891;SDS011;21993;42.672;23.296;2024-02-15T03:42:58;13.37;;;8.07;;
35891;SDS011;21993;42.672;23.296;2024-02-15T03:45:24;11.37;;;7.40;;
35891;SDS011;21993;42.672;23.296;2024-02-15T03:47:53;11.00;;;7.40;;
35891;SDS011;21993;42.672;23.296;2024-02-15T03:50:21;12.10;;;7.30;;
35891;SDS011;21993;42.672;23.296;2024-02-15T03:52:47;9.93;;;7.30;;
35891;SDS011;21993;42.672;23.296;2024-02-15T03:55:13;11.73;;;7.53;;
35891;SDS011;21993;42.672;23.296;2024-02-15T03:57:39;11.27;;;7.87;;
35891;SDS011;21993;42.672;23.296;2024-02-15T04:00:06;8.90;;;6.57;;
35891;SDS011;21993;42.672;23.296;2024-02-15T04:02:33;8.93;;;6.67;;
35891;SDS011;21993;42.672;23.296;2024-02-15T04:05:06;12.30;;;7.07;;
35891;SDS011;21993;42.672;23.296;2024-02-15T04:07:40;13.77;;;7.20;;
35891;SDS011;21993;42.672;23.296;2024-02-15T04:10:06;14.60;;;8.43;;
35891;SDS011;21993;42.672;23.296;2024-02-15T04:12:33;10.30;;;6.90;;
35891;SDS011;21993;42.672;23.296;2024-02-15T04:14:58;12.67;;;7.83;;
35891;SDS011;21993;42.672;23.296;2024-02-15T04:17:30;10.93;;;6.77;;
35891;SDS011;21993;42.672;23.296;2024-02-15T04:19:57;13.73;;;7.33;;
35891;SDS011;21993;42.672;23.296;2024-02-15T04:22:23;11.43;;;6.97;;
35891;SDS011;21993;42.672;23.296;2024-02-15T04:24:49;11.40;;;6.87;;
35891;SDS011;21993;42.672;23.296;2024-02-15T04:27:15;10.33;;;7.07;;
35891;SDS011;21993;42.672;23.296;2024-02-15T04:29:40;11.13;;;6.93;;
35891;SDS011;21993;42.672;23.296;2024-02-15T04:32:09;14.03;;;7.27;;
35891;SDS011;21993;42.672;23.296;2024-02-15T04:34:36;11.33;;;7.30;;
35891;SDS011;21993;42.672;23.296;2024-02-15T04:37:02;13.80;;;8.20;;
35891;SDS011;21993;42.672;23.296;2024-02-15T04:39:35;10.60;;;6.70;;
35891;SDS011;21993;42.672;23.296;2024-02-15T04:42:01;13.20;;;8.00;;
35891;SDS011;21993;42.672;23.296;2024-02-15T04:44:27;11.73;;;7.33;;
35891;SDS011;21993;42.672;23.296;2024-02-15T04:46:53;12.53;;;7.27;;
35891;SDS011;21993;42.672;23.296;2024-02-15T04:49:20;10.80;;;7.30;;
35891;SDS011;21993;42.672;23.296;2024-02-15T04:51:46;12.53;;;7.63;;
35891;SDS011;21993;42.672;23.296;2024-02-15T04:54:12;11.97;;;7.47;;
35891;SDS011;21993;42.672;23.296;2024-02-15T04:56:38;12.13;;;7.93;;
35891;SDS011;21993;42.672;23.296;2024-02-15T04:59:05;13.20;;;8.57;;
35891;SDS011;21993;42.672;23.296;2024-02-15T05:01:34;9.90;;;6.53;;
35891;SDS011;21993;42.672;23.296;2024-02-15T05:04:00;12.30;;;6.93;;
35891;SDS011;21993;42.672;23.296;2024-02-15T05:06:31;9.60;;;7.33;;
35891;SDS011;21993;42.672;23.296;2024-02-15T05:08:57;12.07;;;7.20;;
35891;SDS011;21993;42.672;23.296;2024-02-15T05:11:25;13.93;;;8.20;;
35891;SDS011;21993;42.672;23.296;2024-02-15T05:13:51;15.13;;;8.00;;
35891;SDS011;21993;42.672;23.296;2024-02-15T05:16:17;15.17;;;8.20;;
35891;SDS011;21993;42.672;23.296;2024-02-15T05:18:43;10.57;;;6.97;;
35891;SDS011;21993;42.672;23.296;2024-02-15T05:21:10;12.03;;;7.63;;
35891;SDS011;21993;42.672;23.296;2024-02-15T05:23:37;11.53;;;6.87;;
35891;SDS011;21993;42.672;23.296;2024-02-15T05:26:08;11.87;;;7.23;;
35891;SDS011;21993;42.672;23.296;2024-02-15T05:28:34;11.30;;;6.70;;
35891;SDS011;21993;42.672;23.296;2024-02-15T05:31:13;13.10;;;7.70;;
35891;SDS011;21993;42.672;23.296;2024-02-15T05:33:42;13.60;;;7.70;;
35891;SDS011;21993;42.672;23.296;2024-02-15T05:36:12;10.00;;;6.77;;
35891;SDS011;21993;42.672;23.296;2024-02-15T05:38:39;12.37;;;7.53;;
35891;SDS011;21993;42.672;23.296;2024-02-15T05:41:05;13.37;;;8.33;;
35891;SDS011;21993;42.672;23.296;2024-02-15T05:43:33;10.77;;;7.67;;
35891;SDS011;21993;42.672;23.296;2024-02-15T05:46:03;11.17;;;6.80;;
35891;SDS011;21993;42.672;23.296;2024-02-15T05:48:31;11.60;;;6.90;;
35891;SDS011;21993;42.672;23.296;2024-02-15T05:51:05;13.53;;;7.40;;
35891;SDS011;21993;42.672;23.296;2024-02-15T05:53:32;11.23;;;6.97;;
35891;SDS011;21993;42.672;23.296;2024-02-15T05:56:07;10.20;;;6.80;;
35891;SDS011;21993;42.672;23.296;2024-02-15T05:58:35;14.93;;;7.37;;
35891;SDS011;21993;42.672;23.296;2024-02-15T06:01:02;11.20;;;7.33;;
35891;SDS011;21993;42.672;23.296;2024-02-15T06:03:31;10.47;;;6.40;;
35891;SDS011;21993;42.672;23.296;2024-02-15T06:06:01;15.00;;;8.47;;
35891;SDS011;21993;42.672;23.296;2024-02-15T06:08:32;11.00;;;7.37;;
35891;SDS011;21993;42.672;23.296;2024-02-15T06:10:58;15.13;;;7.40;;
35891;SDS011;21993;42.672;23.296;2024-02-15T06:13:24;11.23;;;7.20;;
35891;SDS011;21993;42.672;23.296;2024-02-15T06:15:51;10.50;;;6.87;;
35891;SDS011;21993;42.672;23.296;2024-02-15T06:18:20;11.63;;;7.20;;
35891;SDS011;21993;42.672;23.296;2024-02-15T06:20:49;12.87;;;7.93;;
35891;SDS011;21993;42.672;23.296;2024-02-15T06:23:18;14.93;;;8.00;;
35891;SDS011;21993;42.672;23.296;2024-02-15T06:25:46;17.13;;;8.40;;
35891;SDS011;21993;42.672;23.296;2024-02-15T06:28:14;10.57;;;6.50;;
35891;SDS011;21993;42.672;23.296;2024-02-15T06:30:58;12.87;;;7.83;;
35891;SDS011;21993;42.672;23.296;2024-02-15T06:33:42;9.97;;;6.97;;
35891;SDS011;21993;42.672;23.296;2024-02-15T06:36:26;11.67;;;7.07;;
35891;SDS011;21993;42.672;23.296;2024-02-15T06:39:10;10.93;;;7.03;;
35891;SDS011;21993;42.672;23.296;2024-02-15T06:41:54;12.03;;;8.13;;
35891;SDS011;21993;42.672;23.296;2024-02-15T06:44:21;11.80;;;6.97;;
35891;SDS011;21993;42.672;23.296;2024-02-15T06:46:49;16.73;;;9.40;;
35891;SDS011;21993;42.672;23.296;2024-02-15T06:49:16;11.00;;;7.40;;
35891;SDS011;21993;42.672;23.296;2024-02-15T06:51:42;13.43;;;7.47;;
35891;SDS011;21993;42.672;23.296;2024-02-15T06:54:08;12.53;;;7.00;;
35891;SDS011;21993;42.672;23.296;2024-02-15T06:56:37;11.50;;;6.83;;
35891;SDS011;21993;42.672;23.296;2024-02-15T06:59:05;14.87;;;7.80;;
35891;SDS011;21993;42.672;23.296;2024-02-15T07:01:32;10.83;;;6.80;;
35891;SDS011;21993;42.672;23.296;2024-02-15T07:03:59;12.73;;;7.40;;
35891;SDS011;21993;42.672;23.296;2024-02-15T07:06:25;14.63;;;7.50;;
35891;SDS011;21993;42.672;23.296;2024-02-15T07:08:53;11.63;;;6.70;;
35891;SDS011;21993;42.672;23.296;2024-02-15T07:11:21;12.80;;;8.23;;
35891;SDS011;21993;42.672;23.296;2024-02-15T07:13:47;14.57;;;7.77;;
35891;SDS011;21993;42.672;23.296;2024-02-15T07:16:13;13.97;;;7.47;;
35891;SDS011;21993;42.672;23.296;2024-02-15T07:18:40;11.90;;;6.80;;
35891;SDS011;21993;42.672;23.296;2024-02-15T07:21:06;11.30;;;6.17;;
35891;SDS011;21993;42.672;23.296;2024-02-15T07:23:36;14.50;;;7.73;;
35891;SDS011;21993;42.672;23.296;2024-02-15T07:26:02;11.43;;;6.77;;
35891;SDS011;21993;42.672;23.296;2024-02-15T07:28:29;11.53;;;6.87;;
35891;SDS011;21993;42.672;23.296;2024-02-15T07:30:56;14.13;;;6.90;;
35891;SDS011;21993;42.672;23.296;2024-02-15T07:33:22;10.70;;;6.83;;
35891;SDS011;21993;42.672;23.296;2024-02-15T07:35:48;11.53;;;7.97;;
35891;SDS011;21993;42.672;23.296;2024-02-15T07:38:18;10.33;;;6.80;;
35891;SDS011;21993;42.672;23.296;2024-02-15T07:40:44;12.00;;;6.93;;
35891;SDS011;21993;42.672;23.296;2024-02-15T07:43:09;12.43;;;7.00;;
35891;SDS011;21993;42.672;23.296;2024-02-15T07:45:35;10.67;;;5.70;;
35891;SDS011;21993;42.672;23.296;2024-02-15T07:48:05;12.37;;;6.07;;
35891;SDS011;21993;42.672;23.296;2024-02-15T07:50:31;12.13;;;7.13;;
35891;SDS011;21993;42.672;23.296;2024-02-15T07:52:56;9.63;;;6.23;;
35891;SDS011;21993;42.672;23.296;2024-02-15T07:55:22;9.33;;;5.90;;
35891;SDS011;21993;42.672;23.296;2024-02-15T07:57:49;11.40;;;6.60;;
35891;SDS011;21993;42.672;23.296;2024-02-15T08:00:16;11.57;;;7.17;;
35891;SDS011;21993;42.672;23.296;2024-02-15T08:02:44;11.30;;;7.17;;
35891;SDS011;21993;42.672;23.296;2024-02-15T08:05:10;13.03;;;7.00;;
35891;SDS011;21993;42.672;23.296;2024-02-15T08:07:37;9.20;;;6.20;;
35891;SDS011;21993;42.672;23.296;2024-02-15T08:10:07;8.80;;;6.37;;
35891;SDS011;21993;42.672;23.296;2024-02-15T08:12:38;12.70;;;6.47;;
35891;SDS011;21993;42.672;23.296;2024-02-15T08:15:08;14.50;;;7.27;;
35891;SDS011;21993;42.672;23.296;2024-02-15T08:17:46;10.73;;;5.50;;
35891;SDS011;21993;42.672;23.296;2024-02-15T08:20:11;11.03;;;6.77;;
35891;SDS011;21993;42.672;23.296;2024-02-15T08:22:38;11.23;;;6.93;;
35891;SDS011;21993;42.672;23.296;2024-02-15T08:25:05;9.17;;;6.27;;
35891;SDS011;21993;42.672;23.296;2024-02-15T08:27:39;9.67;;;6.70;;
35891;SDS011;21993;42.672;23.296;2024-02-15T08:30:11;12.53;;;7.67;;
35891;SDS011;21993;42.672;23.296;2024-02-15T08:32:38;9.40;;;6.83;;
35891;SDS011;21993;42.672;23.296;2024-02-15T08:35:05;10.40;;;6.47;;
35891;SDS011;21993;42.672;23.296;2024-02-15T08:37:32;10.00;;;6.60;;
35891;SDS011;21993;42.672;23.296;2024-02-15T08:40:09;9.47;;;5.90;;
35891;SDS011;21993;42.672;23.296;2024-02-15T08:42:40;9.57;;;5.83;;
35891;SDS011;21993;42.672;23.296;2024-02-15T08:45:07;20.67;;;6.77;;
35891;SDS011;21993;42.672;23.296;2024-02-15T08:47:36;10.23;;;6.20;;
35891;SDS011;21993;42.672;23.296;2024-02-15T08:50:03;10.10;;;6.53;;
35891;SDS011;21993;42.672;23.296;2024-02-15T08:52:29;8.50;;;6.30;;
35891;SDS011;21993;42.672;23.296;2024-02-15T08:54:55;11.23;;;6.50;;
35891;SDS011;21993;42.672;23.296;2024-02-15T08:57:22;8.87;;;5.77;;
35891;SDS011;21993;42.672;23.296;2024-02-15T08:59:49;8.87;;;5.73;;
35891;SDS011;21993;42.672;23.296;2024-02-15T09:02:17;10.67;;;5.63;;
35891;SDS011;21993;42.672;23.296;2024-02-15T09:07:27;9.93;;;6.07;;
35891;SDS011;21993;42.672;23.296;2024-02-15T09:09:52;10.70;;;6.57;;
35891;SDS011;21993;42.672;23.296;2024-02-15T09:12:20;9.97;;;6.73;;
35891;SDS011;21993;42.672;23.296;2024-02-15T09:14:45;9.37;;;6.53;;
35891;SDS011;21993;42.672;23.296;2024-02-15T09:17:13;10.67;;;6.23;;
35891;SDS011;21993;42.672;23.296;2024-02-15T09:19:39;12.67;;;7.03;;
35891;SDS011;21993;42.672;23.296;2024-02-15T09:22:04;12.47;;;6.43;;
35891;SDS011;21993;42.672;23.296;2024-02-15T09:24:31;9.23;;;5.23;;
35891;SDS011;21993;42.672;23.296;2024-02-15T09:26:59;9.57;;;5.73;;
35891;SDS011;21993;42.672;23.296;2024-02-15T09:29:27;9.97;;;5.70;;
35891;SDS011;21993;42.672;23.296;2024-02-15T09:31:57;11.23;;;6.30;;
35891;SDS011;21993;42.672;23.296;2024-02-15T09:34:23;8.90;;;5.57;;
35891;SDS011;21993;42.672;23.296;2024-02-15T09:36:49;8.57;;;6.00;;
35891;SDS011;21993;42.672;23.296;2024-02-15T09:39:15;10.80;;;6.23;;
35891;SDS011;21993;42.672;23.296;2024-02-15T09:41:42;10.43;;;6.17;;
35891;SDS011;21993;42.672;23.296;2024-02-15T09:44:08;8.03;;;5.43;;
35891;SDS011;21993;42.672;23.296;2024-02-15T09:46:40;10.10;;;6.53;;
35891;SDS011;21993;42.672;23.296;2024-02-15T09:49:10;9.57;;;5.40;;
35891;SDS011;21993;42.672;23.296;2024-02-15T09:51:36;10.67;;;6.20;;
35891;SDS011;21993;42.672;23.296;2024-02-15T09:54:12;8.70;;;5.47;;
35891;SDS011;21993;42.672;23.296;2024-02-15T09:56:47;9.40;;;5.73;;
35891;SDS011;21993;42.672;23.296;2024-02-15T09:59:14;8.40;;;4.90;;
35891;SDS011;21993;42.672;23.296;2024-02-15T10:01:41;7.50;;;4.63;;
35891;SDS011;21993;42.672;23.296;2024-02-15T10:04:10;7.77;;;5.73;;
35891;SDS011;21993;42.672;23.296;2024-02-15T10:06:40;7.53;;;5.90;;
35891;SDS011;21993;42.672;23.296;2024-02-15T10:11:54;8.93;;;5.00;;
35891;SDS011;21993;42.672;23.296;2024-02-15T10:14:21;7.77;;;4.87;;
35891;SDS011;21993;42.672;23.296;2024-02-15T10:16:48;9.60;;;6.03;;
35891;SDS011;21993;42.672;23.296;2024-02-15T10:19:13;8.57;;;5.37;;
35891;SDS011;21993;42.672;23.296;2024-02-15T10:21:41;8.10;;;5.73;;
35891;SDS011;21993;42.672;23.296;2024-02-15T10:24:07;7.60;;;5.00;;
35891;SDS011;21993;42.672;23.296;2024-02-15T10:26:33;8.43;;;5.77;;
35891;SDS011;21993;42.672;23.296;2024-02-15T10:29:09;8.97;;;5.20;;
35891;SDS011;21993;42.672;23.296;2024-02-15T10:31:37;8.10;;;4.90;;
35891;SDS011;21993;42.672;23.296;2024-02-15T10:34:06;7.67;;;5.03;;
35891;SDS011;21993;42.672;23.296;2024-02-15T10:36:33;7.30;;;5.13;;
35891;SDS011;21993;42.672;23.296;2024-02-15T10:39:15;7.50;;;5.00;;
35891;SDS011;21993;42.672;23.296;2024-02-15T10:41:53;7.77;;;5.30;;
35891;SDS011;21993;42.672;23.296;2024-02-15T10:46:46;6.63;;;5.83;;
35891;SDS011;21993;42.672;23.296;2024-02-15T10:49:19;6.73;;;5.03;;
35891;SDS011;21993;42.672;23.296;2024-02-15T10:51:48;8.50;;;4.63;;
35891;SDS011;21993;42.672;23.296;2024-02-15T10:54:19;8.17;;;5.33;;
35891;SDS011;21993;42.672;23.296;2024-02-15T10:57:05;8.73;;;5.37;;
35891;SDS011;21993;42.672;23.296;2024-02-15T10:59:32;8.40;;;5.57;;
35891;SDS011;21993;42.672;23.296;2024-02-15T11:02:01;8.17;;;5.57;;
35891;SDS011;21993;42.672;23.296;2024-02-15T11:04:51;8.63;;;5.13;;
35891;SDS011;21993;42.672;23.296;2024-02-15T11:07:23;7.77;;;4.70;;
35891;SDS011;21993;42.672;23.296;2024-02-15T11:09:51;7.83;;;4.33;;
35891;SDS011;21993;42.672;23.296;2024-02-15T11:12:17;10.30;;;5.10;;
35891;SDS011;21993;42.672;23.296;2024-02-15T11:14:46;8.33;;;5.13;;
35891;SDS011;21993;42.672;23.296;2024-02-15T11:17:12;6.70;;;5.07;;
35891;SDS011;21993;42.672;23.296;2024-02-15T11:20:10;5.37;;;4.20;;
35891;SDS011;21993;42.672;23.296;2024-02-15T11:23:02;5.23;;;4.37;;
35891;SDS011;21993;42.672;23.296;2024-02-15T11:25:36;5.30;;;4.27;;
35891;SDS011;21993;42.672;23.296;2024-02-15T11:30:48;5.77;;;3.70;;
35891;SDS011;21993;42.672;23.296;2024-02-15T11:33:29;5.23;;;4.63;;
35891;SDS011;21993;42.672;23.296;2024-02-15T11:36:05;6.53;;;4.70;;
35891;SDS011;21993;42.672;23.296;2024-02-15T11:38:31;6.90;;;4.93;;
35891;SDS011;21993;42.672;23.296;2024-02-15T11:46:19;7.57;;;4.40;;
35891;SDS011;21993;42.672;23.296;2024-02-15T11:53:59;5.03;;;4.20;;
35891;SDS011;21993;42.672;23.296;2024-02-15T11:56:26;6.57;;;5.10;;
35891;SDS011;21993;42.672;23.296;2024-02-15T11:59:04;5.83;;;4.50;;
35891;SDS011;21993;42.672;23.296;2024-02-15T12:01:31;8.13;;;4.60;;
35891;SDS011;21993;42.672;23.296;2024-02-15T12:04:16;7.83;;;5.17;;
35891;SDS011;21993;42.672;23.296;2024-02-15T12:07:19;6.73;;;4.40;;
35891;SDS011;21993;42.672;23.296;2024-02-15T12:10:03;6.70;;;5.30;;
35891;SDS011;21993;42.672;23.296;2024-02-15T12:12:50;6.50;;;4.53;;
35891;SDS011;21993;42.672;23.296;2024-02-15T12:15:35;7.13;;;4.90;;
35891;SDS011;21993;42.672;23.296;2024-02-15T12:18:19;7.77;;;4.67;;
35891;SDS011;21993;42.672;23.296;2024-02-15T12:21:03;8.83;;;4.93;;
35891;SDS011;21993;42.672;23.296;2024-02-15T12:23:32;4.27;;;3.77;;
35891;SDS011;21993;42.672;23.296;2024-02-15T12:26:00;7.00;;;4.67;;
35891;SDS011;21993;42.672;23.296;2024-02-15T12:28:28;7.50;;;4.80;;
35891;SDS011;21993;42.672;23.296;2024-02-15T12:30:55;6.60;;;3.83;;
35891;SDS011;21993;42.672;23.296;2024-02-15T12:33:24;7.10;;;4.87;;
35891;SDS011;21993;42.672;23.296;2024-02-15T12:35:49;7.20;;;4.90;;
35891;SDS011;21993;42.672;23.296;2024-02-15T12:38:16;6.03;;;4.20;;
35891;SDS011;21993;42.672;23.296;2024-02-15T12:40:42;6.83;;;4.80;;
35891;SDS011;21993;42.672;23.296;2024-02-15T12:43:10;13.50;;;4.13;;
35891;SDS011;21993;42.672;23.296;2024-02-15T12:45:37;5.87;;;4.20;;
35891;SDS011;21993;42.672;23.296;2024-02-15T12:48:05;7.37;;;5.37;;
35891;SDS011;21993;42.672;23.296;2024-02-15T12:50:31;6.87;;;4.37;;
35891;SDS011;21993;42.672;23.296;2024-02-15T12:52:58;7.77;;;4.70;;
35891;SDS011;21993;42.672;23.296;2024-02-15T12:55:34;7.47;;;5.30;;
35891;SDS011;21993;42.672;23.296;2024-02-15T12:58:01;5.23;;;4.20;;
35891;SDS011;21993;42.672;23.296;2024-02-15T13:00:34;5.40;;;4.40;;
35891;SDS011;21993;42.672;23.296;2024-02-15T13:03:05;7.93;;;4.87;;
35891;SDS011;21993;42.672;23.296;2024-02-15T13:05:35;13.80;;;6.10;;
35891;SDS011;21993;42.672;23.296;2024-02-15T13:08:02;8.50;;;6.17;;
35891;SDS011;21993;42.672;23.296;2024-02-15T13:10:29;6.33;;;5.10;;
35891;SDS011;21993;42.672;23.296;2024-02-15T13:12:56;9.73;;;5.53;;
35891;SDS011;21993;42.672;23.296;2024-02-15T13:15:24;6.50;;;4.40;;
35891;SDS011;21993;42.672;23.296;2024-02-15T13:17:57;6.30;;;5.10;;
35891;SDS011;21993;42.672;23.296;2024-02-15T13:20:24;6.43;;;5.00;;
35891;SDS011;21993;42.672;23.296;2024-02-15T13:23:00;6.87;;;4.70;;
35891;SDS011;21993;42.672;23.296;2024-02-15T13:25:30;6.00;;;4.40;;
35891;SDS011;21993;42.672;23.296;2024-02-15T13:27:56;6.83;;;4.43;;
35891;SDS011;21993;42.672;23.296;2024-02-15T13:30:22;15.47;;;4.70;;
35891;SDS011;21993;42.672;23.296;2024-02-15T13:32:52;8.20;;;4.50;;
35891;SDS011;21993;42.672;23.296;2024-02-15T13:35:19;6.30;;;4.67;;
35891;SDS011;21993;42.672;23.296;2024-02-15T13:37:52;7.37;;;5.00;;
35891;SDS011;21993;42.672;23.296;2024-02-15T13:40:30;6.00;;;5.00;;
35891;SDS011;21993;42.672;23.296;2024-02-15T13:42:59;9.43;;;5.07;;
35891;SDS011;21993;42.672;23.296;2024-02-15T13:45:34;8.57;;;4.50;;
35891;SDS011;21993;42.672;23.296;2024-02-15T13:48:04;9.97;;;4.90;;
35891;SDS011;21993;42.672;23.296;2024-02-15T13:50:35;5.33;;;3.83;;
35891;SDS011;21993;42.672;23.296;2024-02-15T13:53:01;4.73;;;3.97;;
35891;SDS011;21993;42.672;23.296;2024-02-15T13:55:45;8.20;;;5.70;;
35891;SDS011;21993;42.672;23.296;2024-02-15T13:58:10;4.90;;;4.37;;
35891;SDS011;21993;42.672;23.296;2024-02-15T14:00:39;6.60;;;4.50;;
35891;SDS011;21993;42.672;23.296;2024-02-15T14:03:07;5.33;;;4.80;;
35891;SDS011;21993;42.672;23.296;2024-02-15T14:05:35;10.37;;;5.03;;
35891;SDS011;21993;42.672;23.296;2024-02-15T14:08:07;5.27;;;4.77;;
35891;SDS011;21993;42.672;23.296;2024-02-15T14:10:41;7.53;;;4.97;;
35891;SDS011;21993;42.672;23.296;2024-02-15T14:13:06;11.40;;;5.70;;
35891;SDS011;21993;42.672;23.296;2024-02-15T14:15:36;5.27;;;4.07;;
35891;SDS011;21993;42.672;23.296;2024-02-15T14:18:04;5.10;;;4.40;;
35891;SDS011;21993;42.672;23.296;2024-02-15T14:20:30;6.37;;;4.30;;
35891;SDS011;21993;42.672;23.296;2024-02-15T14:22:56;7.33;;;4.50;;
35891;SDS011;21993;42.672;23.296;2024-02-15T14:25:21;6.13;;;4.67;;
35891;SDS011;21993;42.672;23.296;2024-02-15T14:27:48;7.67;;;4.80;;
35891;SDS011;21993;42.672;23.296;2024-02-15T14:30:13;8.83;;;4.70;;
35891;SDS011;21993;42.672;23.296;2024-02-15T14:32:57;6.80;;;4.73;;
35891;SDS011;21993;42.672;23.296;2024-02-15T14:35:27;7.80;;;4.63;;
35891;SDS011;21993;42.672;23.296;2024-02-15T14:37:55;5.50;;;4.20;;
35891;SDS011;21993;42.672;23.296;2024-02-15T14:40:24;7.03;;;4.40;;
35891;SDS011;21993;42.672;23.296;2024-02-15T14:42:49;14.03;;;7.47;;
35891;SDS011;21993;42.672;23.296;2024-02-15T14:45:15;6.83;;;4.90;;
35891;SDS011;21993;42.672;23.296;2024-02-15T14:47:41;5.60;;;4.30;;
35891;SDS011;21993;42.672;23.296;2024-02-15T14:50:09;7.23;;;5.00;;
35891;SDS011;21993;42.672;23.296;2024-02-15T14:52:35;7.17;;;4.90;;
35891;SDS011;21993;42.672;23.296;2024-02-15T14:55:02;7.07;;;4.97;;
35891;SDS011;21993;42.672;23.296;2024-02-15T14:57:39;7.37;;;4.77;;
35891;SDS011;21993;42.672;23.296;2024-02-15T15:00:07;7.40;;;5.00;;